Latest Weather Observations for Cabramurra

IDN60801

Issued at 9:02 pm EST Friday 22 May 2015 (issued every 30 minutes, with the page automatically refreshed every 10 minutes)

About weather observations | Map of weather stations | Latest weather observations for NSW | Other Formats
Station Details ID: 072161 Name: CABRAMURRA SMHEA AWS Lat: -35.94 Lon: 148.38 Height: 1482.4 m
Data from the previous 72 hours. | See also: Recent months at Cabramurra
Date/Time
EST
Temp
°C
App
Temp
°C
Dew
Point
Rel
Hum
%
Delta-T
°C
Wind Press
QNH
hPa
Press
MSL
hPa
Rain
since 9 am
mm
Dir
 
Spd
km/h
Gust
km/h
Spd
kts
Gust
kts
22/09:00pm 1.5 -6.0 -1.2 82 1.1 SE 28 35 15 19 - - -
22/08:30pm 1.6 -5.5 -1.0 83 1.0 ESE 26 37 14 20 - - 0.0
22/08:00pm 1.1 -5.5 -0.7 88 0.7 ESE 24 35 13 19 - - 0.0
22/07:30pm 1.5 -5.9 -0.7 85 0.9 ESE 28 35 15 19 - - 0.0
22/07:00pm 1.7 -2.1 -0.5 85 0.9 SSE 9 20 5 11 - - 0.0
22/06:30pm 2.0 -2.5 -0.4 84 1.0 S 13 28 7 15 - - 0.0
22/06:00pm 2.7 -2.9 -0.2 81 1.2 SE 19 33 10 18 - - 0.0
22/05:30pm 2.9 -2.9 0.0 81 1.2 SE 20 33 11 18 - - 0.0
22/05:00pm 3.4 -1.8 -0.2 77 1.5 SE 17 28 9 15 - - 0.0
22/04:30pm 4.1 -0.4 -0.5 72 1.9 SSE 13 28 7 15 - - 0.0
22/04:00pm 4.8 -0.4 -0.2 70 2.1 SSE 17 28 9 15 - - 0.0
22/03:30pm 5.4 0.3 0.8 72 2.0 SSE 17 32 9 17 - - 0.0
22/03:00pm 5.4 -0.3 0.6 71 2.1 SSE 20 33 11 18 - - 0.0
22/02:30pm 6.1 2.2 1.1 70 2.2 SE 11 26 6 14 - - 0.0
22/02:00pm 5.0 -1.5 0.0 70 2.1 SE 24 39 13 21 - - 0.0
22/01:38pm 4.7 -2.6 -0.3 70 2.1 SE 28 50 15 27 - - 0.0
22/01:30pm 4.9 -1.6 0.5 73 1.9 SE 24 50 13 27 - - 0.0
22/01:00pm 4.5 -3.1 0.5 75 1.7 SE 30 50 16 27 - - 0.0
22/12:30pm 4.5 -3.9 -0.7 69 2.1 SE 33 59 18 32 - - 0.0
22/12:00pm 4.3 -3.2 1.2 80 1.3 SE 30 54 16 29 - - 0.0
22/11:34am 3.7 -5.2 0.7 81 1.3 SE 37 57 20 31 - - 0.0
22/11:30am 3.7 -5.2 0.7 81 1.3 SE 37 50 20 27 - - 0.0
22/11:10am 3.2 -5.0 0.3 81 1.2 SE 33 54 18 29 - - 0.0
22/11:00am 3.2 -3.9 1.4 88 0.8 SE 28 41 15 22 - - 0.0
22/10:30am 3.1 -4.2 0.3 82 1.2 SE 28 46 15 25 - - 0.0
22/10:05am 2.8 -4.4 0.7 86 0.9 SSE 28 46 15 25 - - 0.0
22/10:00am 2.5 -4.3 0.7 88 0.8 SE 26 43 14 23 - - 0.0
22/09:30am 2.0 -5.6 0.5 90 0.6 SE 30 52 16 28 - - 0.0
22/09:05am 1.9 -5.3 0.6 91 0.5 SSE 28 48 15 26 - - 0.0
22/09:00am 1.8 -3.9 0.6 92 0.5 SSE 20 37 11 20 - - 0.0
22/08:30am 1.7 -5.6 -0.2 87 0.8 SE 28 48 15 26 - - 0.0
22/08:23am 1.6 -6.2 -0.5 86 0.8 SSE 30 48 16 26 - - 0.0
22/08:00am 1.8 -5.2 -0.3 86 0.8 SE 26 44 14 24 - - 0.0
22/07:30am 2.2 -7.1 0.7 90 0.6 SE 39 61 21 33 - - 0.0
22/07:00am 2.7 -6.9 1.4 91 0.6 SE 41 61 22 33 - - 0.0
22/06:35am 2.9 -5.4 2.2 95 0.3 SE 35 54 19 29 - - 0.0
22/06:30am 3.1 -5.2 2.4 95 0.3 SE 35 52 19 28 - - 0.0
22/06:00am 3.1 -4.9 1.9 92 0.5 SE 33 57 18 31 - - 0.0
22/05:30am 3.3 -4.5 2.9 97 0.2 SE 33 54 18 29 - - 0.0
22/05:00am 3.5 -4.1 2.8 95 0.3 SE 32 52 17 28 - - 0.0
22/04:30am 3.5 -4.0 3.4 99 0.0 SE 32 56 17 30 - - 0.0
22/04:00am 3.9 -5.2 3.8 99 0.0 ESE 41 63 22 34 - - 0.0
22/03:39am 4.0 -4.4 3.9 99 0.0 ESE 37 56 20 30 - - 0.0
22/03:30am 4.0 -4.4 3.9 99 0.0 SE 37 54 20 29 - - 0.0
22/03:01am 4.0 -4.0 3.9 99 0.0 SE 35 59 19 32 - - 0.0
22/03:00am 4.0 -3.6 3.9 99 0.0 SE 33 50 18 27 - - 0.0
22/02:30am 3.9 -3.2 3.8 99 0.0 ESE 30 50 16 27 - - 0.0
22/02:00am 4.0 -4.5 3.0 93 0.4 ESE 37 63 20 34 - - 0.0
22/01:30am 3.6 -4.5 3.5 99 0.0 ESE 35 56 19 30 - - 0.0
22/01:00am 3.8 -3.7 3.5 98 0.1 ESE 32 57 17 31 - - 0.0
22/12:30am 3.9 -5.0 3.2 95 0.3 ESE 39 57 21 31 - - 0.0
22/12:00am 3.9 -3.2 3.6 98 0.1 ESE 30 48 16 26 - - 0.0
 
Date/Time
EST
Temp
°C
App
Temp
°C
Dew
Point
Rel
Hum
%
Delta-T
°C
Wind Press
QNH
hPa
Press
MSL
hPa
Rain
since 9 am
mm
Dir
 
Spd
km/h
Gust
km/h
Spd
kts
Gust
kts
21/11:35pm 3.7 -3.4 3.6 99 0.0 ESE 30 50 16 27 - - 0.0
21/11:30pm 3.7 -3.8 3.6 99 0.0 ESE 32 46 17 25 - - 0.0
21/11:00pm 3.8 -4.3 3.4 97 0.2 ESE 35 56 19 30 - - 0.0
21/10:30pm 4.0 -3.1 3.7 98 0.1 ESE 30 48 16 26 - - 0.0
21/10:00pm 4.0 -2.7 3.4 96 0.3 ESE 28 46 15 25 - - 0.0
21/09:40pm 4.0 -2.7 3.6 97 0.2 SE 28 48 15 26 - - 0.0
21/09:30pm 4.0 -1.9 3.9 99 0.0 ESE 24 43 13 23 - - 0.0
21/09:00pm 4.0 -3.4 3.9 99 0.0 ESE 32 44 17 24 - - 0.0
21/08:36pm 4.2 -2.4 4.1 99 0.0 SE 28 48 15 26 - - 0.0
21/08:30pm 4.1 -1.4 4.0 99 0.0 SE 22 39 12 21 - - 0.0
21/08:00pm 4.0 -1.5 3.9 99 0.0 SE 22 30 12 16 - - 0.0
21/07:30pm 4.3 0.1 3.7 96 0.3 SE 15 28 8 15 - - 0.0
21/07:00pm 4.4 -0.2 3.5 94 0.4 SE 17 26 9 14 - - 0.0
21/06:30pm 4.5 -1.1 3.3 92 0.5 ESE 22 30 12 16 - - 0.0
21/06:00pm 4.5 -1.2 2.7 88 0.8 ESE 22 33 12 18 - - 0.0
21/05:30pm 4.8 -0.1 2.2 83 1.2 ESE 17 20 9 11 - - 0.0
21/05:00pm 5.1 -0.1 2.3 82 1.2 ESE 19 24 10 13 - - 0.0
21/04:30pm 5.4 0.2 2.2 80 1.4 ESE 19 24 10 13 - - 0.0
21/04:00pm 5.9 0.7 2.4 78 1.6 ESE 19 30 10 16 - - 0.0
21/03:30pm 6.2 0.3 1.5 72 2.1 ESE 22 32 12 17 - - 0.0
21/03:00pm 7.1 2.6 2.2 71 2.2 ESE 15 22 8 12 - - 0.0
21/02:30pm 6.8 1.5 1.7 70 2.3 E 19 30 10 16 - - 0.0
21/02:00pm 7.0 2.1 2.1 71 2.2 E 17 24 9 13 - - 0.0
21/01:30pm 6.4 1.6 2.5 76 1.8 E 17 22 9 12 - - 0.0
21/01:00pm 6.1 1.1 1.4 72 2.1 ESE 17 24 9 13 - - 0.0
21/12:30pm 7.7 3.1 1.8 66 2.7 E 15 22 8 12 - - 0.0
21/12:00pm 7.0 2.0 1.1 66 2.6 ESE 17 28 9 15 - - 0.0
21/11:30am 6.0 1.5 2.3 77 1.7 SE 15 24 8 13 - - 0.0
21/11:00am 5.3 0.2 2.8 84 1.1 ESE 19 24 10 13 - - 0.0
21/10:30am 5.0 -0.4 2.7 85 1.0 ESE 20 30 11 16 - - 0.0
21/10:00am 5.2 -0.8 3.2 87 0.9 ESE 24 32 13 17 - - 0.0
21/09:30am 3.9 -3.0 2.4 90 0.7 ESE 28 35 15 19 - - 0.0
21/09:00am 4.1 -3.1 2.8 91 0.6 ESE 30 39 16 21 - - 5.4
21/08:30am 3.3 -4.5 1.8 90 0.6 ESE 32 41 17 22 - - 5.4
21/08:00am 3.0 -4.5 1.2 88 0.8 ESE 30 41 16 22 - - 5.4
21/07:30am 3.1 -3.7 0.7 84 1.0 ESE 26 35 14 19 - - 5.4
21/07:00am 3.1 -2.4 0.7 84 1.0 ESE 19 24 10 13 - - 5.4
21/06:30am 3.2 -0.7 1.1 86 0.9 SE 11 15 6 8 - - 5.4
21/06:00am 2.8 -0.3 1.6 92 0.5 S 7 11 4 6 - - 5.4
21/05:30am 2.5 -0.9 1.9 96 0.3 SSE 9 11 5 6 - - 5.4
21/05:00am 2.0 -1.5 1.1 94 0.4 S 9 9 5 5 - - 5.4
21/04:30am 2.2 -1.3 1.0 92 0.5 S 9 11 5 6 - - 5.4
21/04:00am 2.2 -1.2 1.9 98 0.1 SSE 9 11 5 6 - - 5.4
21/03:30am 2.0 -1.8 1.9 99 0.0 S 11 13 6 7 - - 5.4
21/03:00am 2.1 -2.0 2.0 99 0.0 S 13 15 7 8 - - 5.4
21/02:30am 2.2 -0.8 2.1 99 0.0 S 7 11 4 6 - - 5.4
21/02:00am 2.5 -0.4 2.4 99 0.0 S 7 9 4 5 - - 5.4
21/01:30am 2.8 0.1 2.7 99 0.0 WNW 6 11 3 6 - - 5.4
21/01:00am 2.7 -2.1 2.6 99 0.0 NW 17 24 9 13 - - 5.4
21/12:30am 2.9 -0.3 2.8 99 0.0 WNW 9 15 5 8 - - 5.4
21/12:00am 3.2 -0.8 3.1 99 0.0 W 13 19 7 10 - - 5.4
 
Date/Time
EST
Temp
°C
App
Temp
°C
Dew
Point
Rel
Hum
%
Delta-T
°C
Wind Press
QNH
hPa
Press
MSL
hPa
Rain
since 9 am
mm
Dir
 
Spd
km/h
Gust
km/h
Spd
kts
Gust
kts
20/11:30pm 3.4 -0.9 3.3 99 0.0 W 15 26 8 14 - - 5.4
20/11:00pm 3.5 -1.5 3.5 100 0.0 W 19 28 10 15 - - 5.4
20/10:30pm 3.8 -1.4 3.8 100 0.0 W 20 28 11 15 - - 5.4
20/10:00pm 3.8 -2.1 3.7 99 0.0 W 24 37 13 20 - - 5.4
20/09:30pm 4.2 -0.7 4.2 100 0.0 W 19 37 10 20 - - 5.4
20/09:00pm 4.3 -2.3 4.3 100 0.0 WNW 28 43 15 23 - - 5.4
20/08:30pm 4.7 -1.0 4.7 100 0.0 WNW 24 46 13 25 - - 5.4
20/08:27pm 4.6 -2.3 4.6 100 0.0 WNW 30 46 16 25 - - 5.4
20/08:00pm 4.8 -2.1 4.8 100 0.0 W 30 48 16 26 - - 5.4
20/07:30pm 5.0 -1.4 5.0 100 0.0 WNW 28 50 15 27 - - 5.4
20/07:00pm 5.4 -1.3 5.4 100 0.0 WNW 30 50 16 27 - - 5.4
20/06:54pm 5.3 -1.8 5.3 100 0.0 WNW 32 50 17 27 - - 5.4
20/06:30pm 5.4 -1.7 5.4 100 0.0 WNW 32 48 17 26 - - 5.4
20/06:00pm 5.5 -0.5 5.5 100 0.0 WNW 26 46 14 25 - - 5.4
20/05:30pm 5.6 -0.7 5.5 99 0.0 WNW 28 46 15 25 - - 5.4
20/05:00pm 5.6 -1.1 5.5 99 0.0 NW 30 48 16 26 - - 5.2
20/04:30pm 5.5 -2.2 5.4 99 0.0 NW 35 46 19 25 - - 4.8
20/04:00pm 5.9 -1.1 5.9 100 0.0 NW 32 46 17 25 - - 4.8
20/03:33pm 6.2 -0.4 6.2 100 0.0 NW 30 59 16 32 - - 2.8
20/03:30pm 6.3 0.1 6.3 100 0.0 NW 28 43 15 23 - - 2.8
20/03:18pm 6.4 -0.5 6.4 100 0.0 NW 32 50 17 27 - - 2.6
20/03:00pm 6.4 -0.5 6.4 100 0.0 WNW 32 52 17 28 - - 2.6
20/02:57pm 6.4 -1.1 6.3 99 0.0 WNW 35 52 19 28 - - 2.6
20/02:44pm 6.3 -2.7 6.2 99 0.0 WNW 43 65 23 35 - - 2.4
20/02:30pm 6.7 -0.2 6.6 99 0.0 NW 32 50 17 27 - - 0.4
20/02:00pm 7.3 -0.4 7.2 99 0.1 NW 37 57 20 31 - - 0.0
20/01:30pm 7.3 0.0 7.3 100 0.0 WNW 35 59 19 32 - - 0.0
20/01:00pm 7.0 -0.7 7.0 100 0.0 WNW 37 57 20 31 - - 0.0
20/12:30pm 7.0 0.6 7.0 100 0.0 NW 30 48 16 26 - - 0.0
20/12:00pm 6.9 0.1 6.9 100 0.0 WNW 32 52 17 28 - - 0.0
20/11:33am 6.8 -0.2 6.8 100 0.0 NW 33 52 18 28 - - 0.0
20/11:30am 6.8 -0.6 6.8 100 0.0 NW 35 52 19 28 - - 0.0
20/11:10am 6.7 0.6 6.7 100 0.0 NW 28 46 15 25 - - 0.0
20/11:00am 6.7 0.6 6.7 100 0.0 NW 28 43 15 23 - - 0.0
20/10:31am 6.4 -0.1 6.4 100 0.0 NW 30 48 16 26 - - 0.0
20/10:30am 6.5 0.4 6.5 100 0.0 NW 28 41 15 22 - - 0.0
20/10:00am 6.4 0.3 6.4 100 0.0 NW 28 43 15 23 - - 0.0
20/09:30am 6.1 -1.4 6.1 100 0.0 NW 35 52 19 28 - - 0.0
20/09:14am 6.2 -0.8 6.2 100 0.0 WNW 32 50 17 27 - - 0.0
20/09:00am 6.4 -0.5 6.4 100 0.0 NW 32 44 17 24 - - 27.2
20/08:30am 6.2 0.8 6.2 100 0.0 NW 24 35 13 19 - - 27.2
20/08:00am 6.1 0.6 6.1 100 0.0 NW 24 35 13 19 - - 27.2
20/07:30am 6.0 -0.6 6.0 100 0.0 NW 30 39 16 21 - - 27.2
20/07:00am 5.9 0.0 5.9 100 0.0 NW 26 39 14 21 - - 27.2
20/06:30am 5.9 -0.4 5.9 100 0.0 NW 28 48 15 26 - - 27.2
20/06:24am 6.0 -0.6 6.0 100 0.0 NW 30 48 16 26 - - 27.2
20/06:00am 5.8 -1.2 5.8 100 0.0 NW 32 44 17 24 - - 27.2
20/05:30am 5.9 -0.4 5.9 100 0.0 NW 28 39 15 21 - - 27.2
20/05:00am 5.9 0.0 5.9 100 0.0 NW 26 35 14 19 - - 27.2
20/04:30am 5.9 0.0 5.9 100 0.0 NW 26 37 14 20 - - 27.2
20/04:00am 5.9 0.4 5.9 100 0.0 NW 24 35 13 19 - - 27.2
20/03:37am 5.9 -0.4 5.9 100 0.0 NW 28 46 15 25 - - 27.2
20/03:30am 5.9 -0.7 5.9 100 0.0 NW 30 44 16 24 - - 27.2
20/03:00am 5.8 -0.9 5.8 100 0.0 NW 30 43 16 23 - - 27.2
20/02:52am 5.8 -1.2 5.8 100 0.0 NW 32 50 17 27 - - 27.2
20/02:30am 5.8 -1.2 5.8 100 0.0 NW 32 44 17 24 - - 27.2
20/02:00am 5.6 -0.7 5.6 100 0.0 NW 28 39 15 21 - - 27.2
20/01:30am 5.6 -1.1 5.6 100 0.0 NW 30 41 16 22 - - 27.2
20/01:00am 5.9 -0.4 5.9 100 0.0 NW 28 43 15 23 - - 27.2
20/12:30am 5.9 -1.7 5.9 100 0.0 NW 35 48 19 26 - - 27.2
20/12:09am 5.9 -1.7 5.9 100 0.0 NW 35 61 19 33 - - 27.2
20/12:00am 5.9 -1.7 5.9 100 0.0 NW 35 46 19 25 - - 27.2
 
Date/Time
EST
Temp
°C
App
Temp
°C
Dew
Point
Rel
Hum
%
Delta-T
°C
Wind Press
QNH
hPa
Press
MSL
hPa
Rain
since 9 am
mm
Dir
 
Spd
km/h
Gust
km/h
Spd
kts
Gust
kts
19/11:30pm 6.1 -1.1 6.1 100 0.0 NW 33 46 18 25 - - 27.2
19/11:09pm 6.0 -1.6 6.0 100 0.0 NW 35 54 19 29 - - 27.2
19/11:00pm 6.1 -0.5 6.1 100 0.0 NW 30 44 16 24 - - 27.2
19/10:30pm 6.2 0.8 6.2 100 0.0 NW 24 35 13 19 - - 27.2
19/10:00pm 6.3 -0.2 6.3 100 0.0 WNW 30 43 16 23 - - 27.2
19/09:30pm 6.2 0.0 6.2 100 0.0 NW 28 41 15 22 - - 27.2

Other Formats:

Comma delimited format used in spreadsheet applications
http://www.bom.gov.au/fwo/IDN60801/IDN60801.95916.axf

JavaScript Object Notation format (JSON) in row-major order
http://www.bom.gov.au/fwo/IDN60801/IDN60801.95916.json